createdAt,value
2022-09-18T00:00:57.925Z,2.80
2022-09-18T00:03:34.610Z,2.92
2022-09-18T00:06:06.627Z,4.15
2022-09-18T00:08:33.851Z,4.57
2022-09-18T00:11:04.363Z,3.13
2022-09-18T00:13:32.016Z,6.05
2022-09-18T00:16:00.776Z,6.25
2022-09-18T00:18:28.434Z,8.82
2022-09-18T00:20:55.902Z,9.40
2022-09-18T00:23:23.236Z,4.53
2022-09-18T00:25:50.643Z,3.28
2022-09-18T00:28:18.283Z,2.60
2022-09-18T00:30:45.556Z,5.13
2022-09-18T00:33:14.199Z,3.60
2022-09-18T00:35:42.645Z,2.58
2022-09-18T00:38:10.010Z,2.50
2022-09-18T00:40:38.013Z,3.92
2022-09-18T00:43:27.417Z,4.10
2022-09-18T00:45:57.504Z,2.08
2022-09-18T00:48:36.329Z,1.98
2022-09-18T00:51:04.128Z,4.03
2022-09-18T00:53:51.548Z,6.88
2022-09-18T00:56:18.897Z,3.10
2022-09-18T00:58:46.619Z,3.28
2022-09-18T01:01:22.981Z,4.20
2022-09-18T01:03:53.728Z,1.77
2022-09-18T01:06:31.149Z,2.05
2022-09-18T01:09:10.776Z,1.88
2022-09-18T01:11:49.020Z,6.00
2022-09-18T01:14:29.515Z,3.72
2022-09-18T01:17:05.550Z,3.13
2022-09-18T01:20:09.410Z,2.10
2022-09-18T01:22:52.105Z,3.17
2022-09-18T01:25:28.244Z,1.65
2022-09-18T01:28:10.339Z,1.25
2022-09-18T01:30:43.284Z,1.35
2022-09-18T01:33:18.348Z,2.20
2022-09-18T01:35:52.541Z,1.05
2022-09-18T01:38:25.355Z,2.55
2022-09-18T01:40:56.554Z,2.53
2022-09-18T01:43:29.186Z,1.00
2022-09-18T01:46:02.331Z,1.52
2022-09-18T01:48:32.297Z,1.52
2022-09-18T01:51:06.694Z,1.27
2022-09-18T01:53:38.914Z,2.53
2022-09-18T01:56:11.836Z,2.10
2022-09-18T01:58:40.716Z,2.00
2022-09-18T02:01:13.420Z,0.85
2022-09-18T02:06:14.486Z,1.33
2022-09-18T02:08:45.480Z,0.65
2022-09-18T02:11:15.477Z,2.85
2022-09-18T02:13:48.998Z,0.95
2022-09-18T02:16:21.895Z,2.35
2022-09-18T02:18:52.916Z,1.55
2022-09-18T02:21:26.504Z,1.23
2022-09-18T02:23:57.949Z,4.53
2022-09-18T02:26:26.693Z,2.58
2022-09-18T02:28:56.571Z,3.78
2022-09-18T02:34:10.768Z,8.63
2022-09-18T02:37:07.603Z,5.13
2022-09-18T02:39:56.025Z,6.88
2022-09-18T02:42:35.725Z,4.25
2022-09-18T02:45:15.104Z,6.82
2022-09-18T02:47:57.621Z,5.88
2022-09-18T02:50:36.859Z,3.05
2022-09-18T02:53:10.559Z,3.90
2022-09-18T02:55:44.555Z,2.90
2022-09-18T02:58:19.255Z,2.60
2022-09-18T03:00:50.577Z,1.92
2022-09-18T03:03:18.128Z,2.05
2022-09-18T03:05:45.504Z,2.35
2022-09-18T03:08:13.173Z,4.45
2022-09-18T03:10:40.414Z,6.60
2022-09-18T03:13:08.018Z,5.35
2022-09-18T03:15:35.569Z,2.97
2022-09-18T03:18:04.222Z,2.47
2022-09-18T03:20:31.466Z,1.25
2022-09-18T03:22:59.444Z,1.27
2022-09-18T03:25:26.724Z,1.67
2022-09-18T03:27:54.538Z,1.58
2022-09-18T03:30:22.612Z,1.27
2022-09-18T03:32:49.838Z,1.58
2022-09-18T03:35:18.453Z,2.30
2022-09-18T03:37:46.199Z,1.58
2022-09-18T03:40:13.689Z,1.98
2022-09-18T03:42:42.900Z,2.13
2022-09-18T03:45:11.054Z,1.15
2022-09-18T03:47:39.033Z,1.70
2022-09-18T03:50:07.221Z,1.02
2022-09-18T03:52:36.474Z,0.88
2022-09-18T03:55:04.210Z,1.13
2022-09-18T03:57:31.468Z,2.28
2022-09-18T03:59:59.014Z,1.45
2022-09-18T04:02:26.425Z,0.90
2022-09-18T04:04:53.656Z,2.83
2022-09-18T04:07:21.230Z,2.35
2022-09-18T04:09:50.045Z,1.45
2022-09-18T04:12:17.252Z,1.13
2022-09-18T04:14:44.827Z,2.13
2022-09-18T04:17:12.141Z,2.17
2022-09-18T04:19:39.372Z,1.75
2022-09-18T04:22:06.970Z,2.08
2022-09-18T04:24:34.367Z,2.20
2022-09-18T04:27:03.094Z,1.17
2022-09-18T04:29:30.728Z,1.83
2022-09-18T04:31:58.009Z,1.38
2022-09-18T04:34:25.302Z,1.90
2022-09-18T04:36:52.912Z,2.83
2022-09-18T04:39:20.137Z,1.30
2022-09-18T04:41:47.383Z,3.10
2022-09-18T04:44:16.338Z,4.78
2022-09-18T04:46:43.828Z,2.70
2022-09-18T04:49:11.153Z,1.75
2022-09-18T04:51:39.083Z,1.38
2022-09-18T04:54:06.387Z,2.35
2022-09-18T04:56:33.869Z,3.10
2022-09-18T04:59:01.649Z,2.80
2022-09-18T05:01:30.954Z,2.20
2022-09-18T05:03:58.161Z,2.13
2022-09-18T05:06:25.767Z,2.40
2022-09-18T05:08:53.001Z,3.58
2022-09-18T05:11:20.278Z,2.60
2022-09-18T05:13:48.538Z,4.60
2022-09-18T05:16:15.929Z,3.15
2022-09-18T05:18:44.686Z,2.70
2022-09-18T05:21:12.625Z,3.15
2022-09-18T05:23:39.766Z,3.20
2022-09-18T05:26:06.949Z,2.47
2022-09-18T05:28:34.458Z,2.30
2022-09-18T05:31:02.316Z,2.65
2022-09-18T05:33:29.714Z,3.28
2022-09-18T05:35:58.888Z,2.70
2022-09-18T05:38:26.722Z,2.60
2022-09-18T05:40:53.957Z,3.10
2022-09-18T05:43:21.464Z,6.75
2022-09-18T05:45:48.697Z,5.95
2022-09-18T05:48:15.901Z,3.17
2022-09-18T05:50:43.370Z,3.50
2022-09-18T05:53:13.501Z,4.93
2022-09-18T05:55:41.362Z,2.75
2022-09-18T05:58:14.204Z,4.15
2022-09-18T06:00:41.831Z,3.28
2022-09-18T06:03:11.569Z,2.10
2022-09-18T06:05:39.951Z,3.85
2022-09-18T06:08:08.894Z,3.83
2022-09-18T06:10:39.251Z,4.05
2022-09-18T06:13:08.703Z,2.92
2022-09-18T06:15:36.905Z,3.47
2022-09-18T06:18:06.042Z,3.33
2022-09-18T06:20:33.212Z,3.03
2022-09-18T06:23:00.967Z,2.58
2022-09-18T06:25:29.173Z,3.30
2022-09-18T06:27:59.017Z,3.40
2022-09-18T06:30:26.882Z,3.15
2022-09-18T06:32:54.756Z,1.73
2022-09-18T06:35:22.269Z,1.13
2022-09-18T06:37:49.671Z,1.23
2022-09-18T06:40:17.479Z,1.15
2022-09-18T06:42:46.117Z,1.15
2022-09-18T06:45:15.286Z,1.40
2022-09-18T06:47:42.827Z,1.30
2022-09-18T06:50:10.097Z,0.60
2022-09-18T06:52:37.337Z,0.57
2022-09-18T06:55:05.653Z,0.50
2022-09-18T06:57:32.869Z,0.30
2022-09-18T07:00:00.038Z,0.50
2022-09-18T07:02:29.040Z,0.40
2022-09-18T07:04:56.394Z,0.75
2022-09-18T07:07:23.702Z,0.52
2022-09-18T07:09:51.772Z,1.10
2022-09-18T07:12:18.982Z,1.70
2022-09-18T07:14:46.254Z,0.60
2022-09-18T07:17:18.102Z,0.90
2022-09-18T07:19:47.857Z,1.13
2022-09-18T07:22:15.440Z,0.75
2022-09-18T07:24:42.701Z,0.55
2022-09-18T07:27:09.892Z,1.05
2022-09-18T07:29:37.389Z,0.85
2022-09-18T07:32:05.139Z,0.82
2022-09-18T07:34:32.663Z,0.88
2022-09-18T07:37:01.695Z,1.42
2022-09-18T07:39:28.929Z,0.73
2022-09-18T07:41:56.215Z,0.80
2022-09-18T07:44:24.011Z,1.17
2022-09-18T07:46:51.398Z,0.98
2022-09-18T07:49:18.766Z,1.95
2022-09-18T07:51:46.779Z,1.25
2022-09-18T07:54:15.497Z,1.90
2022-09-18T07:56:46.764Z,2.90
2022-09-18T07:59:15.107Z,0.47
2022-09-18T08:01:42.477Z,1.50
2022-09-18T08:04:09.962Z,1.63
2022-09-18T08:06:37.546Z,1.48
2022-09-18T08:09:05.154Z,0.82
2022-09-18T08:11:34.134Z,1.63
2022-09-18T08:14:01.681Z,0.40
2022-09-18T08:16:28.980Z,0.50
2022-09-18T08:18:56.349Z,0.50
2022-09-18T08:21:23.832Z,1.20
2022-09-18T08:23:51.143Z,1.85
2022-09-18T08:26:22.136Z,0.65
2022-09-18T08:28:51.549Z,0.93
2022-09-18T08:31:18.862Z,0.70
2022-09-18T08:33:46.177Z,0.88
2022-09-18T08:36:13.765Z,1.45
2022-09-18T08:38:40.933Z,1.80
2022-09-18T08:41:21.087Z,1.20
2022-09-18T08:43:57.329Z,1.90
2022-09-18T08:46:30.357Z,1.10
2022-09-18T08:49:05.909Z,1.85
2022-09-18T08:51:38.114Z,2.33
2022-09-18T08:54:19.579Z,1.38
2022-09-18T08:56:47.507Z,2.65
2022-09-18T08:59:24.067Z,2.33
2022-09-18T09:02:03.526Z,3.25
2022-09-18T09:04:31.095Z,0.95
2022-09-18T09:07:11.888Z,0.95
2022-09-18T09:09:56.395Z,1.70
2022-09-18T09:12:35.420Z,0.98
2022-09-18T09:15:36.547Z,1.35
2022-09-18T09:18:16.564Z,0.52
2022-09-18T09:20:51.567Z,3.10
2022-09-18T09:23:29.465Z,2.92
2022-09-18T09:40:36.341Z,3.28
2022-09-18T09:43:11.735Z,4.43
2022-09-18T09:45:49.559Z,4.25
2022-09-18T09:48:23.145Z,6.97
2022-09-18T09:50:57.030Z,4.40
2022-09-18T09:53:26.891Z,7.75
2022-09-18T09:56:11.297Z,7.72
2022-09-18T09:58:47.912Z,8.80
2022-09-18T10:01:22.560Z,9.98
2022-09-18T10:04:03.300Z,8.80
2022-09-18T10:06:41.179Z,6.03
2022-09-18T10:09:16.150Z,7.72
2022-09-18T10:11:55.261Z,10.27
2022-09-18T10:14:31.234Z,10.20
2022-09-18T10:16:59.415Z,6.18
2022-09-18T10:19:36.094Z,7.40
2022-09-18T10:22:07.679Z,7.13
2022-09-18T10:24:44.069Z,7.97
2022-09-18T10:29:59.350Z,7.95
2022-09-18T10:32:34.821Z,8.75
2022-09-18T10:35:37.398Z,5.60
2022-09-18T10:38:33.648Z,5.50
2022-09-18T10:41:27.272Z,7.88
2022-09-18T10:43:59.453Z,9.18
2022-09-18T10:46:28.984Z,5.82
2022-09-18T10:48:58.494Z,7.97
2022-09-18T10:51:25.999Z,6.10
2022-09-18T10:54:02.152Z,5.88
2022-09-18T10:56:30.361Z,6.00
2022-09-18T10:59:14.032Z,8.20
2022-09-18T11:01:44.790Z,9.90
2022-09-18T11:04:17.350Z,4.63
2022-09-18T11:06:46.387Z,7.55
2022-09-18T11:09:20.613Z,5.40
2022-09-18T11:11:48.981Z,6.65
2022-09-18T11:14:22.242Z,4.80
2022-09-18T11:16:52.708Z,7.35
2022-09-18T11:19:27.984Z,9.40
2022-09-18T11:21:58.150Z,6.60
2022-09-18T11:24:29.585Z,6.88
2022-09-18T11:26:58.627Z,8.07
2022-09-18T11:29:31.417Z,6.47
2022-09-18T11:32:05.544Z,9.77
2022-09-18T11:34:37.882Z,8.75
2022-09-18T11:37:08.164Z,7.53
2022-09-18T11:39:37.889Z,7.38
2022-09-18T11:42:12.541Z,7.18
2022-09-18T11:44:42.734Z,7.72
2022-09-18T11:47:34.006Z,9.57
2022-09-18T11:50:07.908Z,6.50
2022-09-18T11:52:40.801Z,8.20
2022-09-18T11:55:17.533Z,5.80
2022-09-18T11:57:49.309Z,4.10
2022-09-18T12:00:20.965Z,3.20
2022-09-18T12:02:58.306Z,7.20
2022-09-18T12:05:31.205Z,3.42
2022-09-18T12:08:11.247Z,7.07
2022-09-18T12:10:51.552Z,5.22
2022-09-18T12:13:31.842Z,8.70
2022-09-18T12:16:20.215Z,5.95
2022-09-18T12:18:55.644Z,7.55
2022-09-18T12:21:34.914Z,8.15
2022-09-18T12:24:02.432Z,5.53
2022-09-18T12:26:43.160Z,8.70
2022-09-18T12:29:28.436Z,5.75
2022-09-18T12:32:12.077Z,5.28
2022-09-18T12:34:47.892Z,4.45
2022-09-18T12:37:30.896Z,5.50
2022-09-18T12:40:20.050Z,3.28
2022-09-18T12:43:04.327Z,3.13
2022-09-18T12:46:00.874Z,3.88
2022-09-18T12:48:47.458Z,5.15
2022-09-18T12:51:39.264Z,2.97
2022-09-18T12:54:26.844Z,4.28
2022-09-18T12:57:07.328Z,3.75
2022-09-18T12:59:53.191Z,4.10
2022-09-18T13:02:31.815Z,4.60
2022-09-18T13:05:07.290Z,3.03
2022-09-18T13:07:39.998Z,4.40
2022-09-18T13:10:14.499Z,4.45
2022-09-18T13:12:47.951Z,3.25
2022-09-18T13:15:20.856Z,5.50
2022-09-18T13:17:53.047Z,6.28
2022-09-18T13:20:25.917Z,4.35
2022-09-18T13:22:54.713Z,2.95
2022-09-18T13:25:27.288Z,2.78
2022-09-18T13:27:56.269Z,5.65
2022-09-18T13:30:26.774Z,6.35
2022-09-18T13:32:55.008Z,4.63
2022-09-18T13:35:26.125Z,2.25
2022-09-18T13:38:16.401Z,4.53
2022-09-18T13:40:46.471Z,5.05
2022-09-18T13:43:38.625Z,4.70
2022-09-18T13:46:07.549Z,4.22
2022-09-18T13:48:42.337Z,3.67
2022-09-18T13:51:18.967Z,3.25
2022-09-18T13:53:46.590Z,3.42
2022-09-18T13:56:15.544Z,4.07
2022-09-18T13:58:51.267Z,5.20
2022-09-18T14:01:57.652Z,4.03
2022-09-18T14:05:07.609Z,3.45
2022-09-18T14:08:13.951Z,3.38
2022-09-18T14:11:15.063Z,4.30
2022-09-18T14:13:45.927Z,7.57
2022-09-18T14:16:40.905Z,8.10
2022-09-18T14:19:30.208Z,6.90
2022-09-18T14:21:58.563Z,5.85
2022-09-18T14:24:59.266Z,3.55
2022-09-18T14:27:37.869Z,7.10
2022-09-18T14:30:15.529Z,8.00
2022-09-18T14:32:54.056Z,4.97
2022-09-18T14:35:36.930Z,2.15
2022-09-18T14:38:17.731Z,2.55
2022-09-18T14:40:52.200Z,5.63
2022-09-18T14:43:23.505Z,3.00
2022-09-18T14:45:51.599Z,3.55
2022-09-18T14:48:27.628Z,4.65
2022-09-18T14:51:03.057Z,2.88
2022-09-18T14:53:31.134Z,4.60
2022-09-18T14:56:03.768Z,5.22
2022-09-18T14:58:37.273Z,4.95
2022-09-18T15:01:07.467Z,4.03
2022-09-18T15:03:38.835Z,2.13
2022-09-18T15:06:09.903Z,3.00
2022-09-18T15:08:37.864Z,5.82
2022-09-18T15:11:05.619Z,2.40
2022-09-18T15:13:35.872Z,3.25
2022-09-18T15:16:04.090Z,3.05
2022-09-18T15:18:41.851Z,2.95
2022-09-18T15:21:22.340Z,2.70
2022-09-18T15:23:50.654Z,4.20
2022-09-18T15:26:19.784Z,2.08
2022-09-18T15:28:51.947Z,3.75
2022-09-18T15:31:21.377Z,1.70
2022-09-18T15:33:54.295Z,2.25
2022-09-18T15:36:28.426Z,3.78
2022-09-18T15:38:57.985Z,1.75
2022-09-18T15:41:38.850Z,4.03
2022-09-18T15:44:54.164Z,1.13
2022-09-18T15:47:30.286Z,3.40
2022-09-18T15:49:59.073Z,4.53
2022-09-18T15:52:36.542Z,1.98
2022-09-18T15:55:17.717Z,4.32
2022-09-18T15:57:49.246Z,2.03
2022-09-18T16:00:19.958Z,2.47
2022-09-18T16:02:52.571Z,3.78
2022-09-18T16:05:21.650Z,4.07
2022-09-18T16:07:52.816Z,2.78
2022-09-18T16:10:46.508Z,2.85
2022-09-18T16:13:31.144Z,1.73
2022-09-18T16:16:21.829Z,2.78
2022-09-18T16:18:52.140Z,3.20
2022-09-18T16:21:20.241Z,2.65
2022-09-18T16:23:49.711Z,2.40
2022-09-18T16:26:24.362Z,2.58
2022-09-18T16:28:55.042Z,3.97
2022-09-18T16:31:26.014Z,2.95
2022-09-18T16:33:55.778Z,3.65
2022-09-18T16:36:26.711Z,3.42
2022-09-18T16:38:54.261Z,4.88
2022-09-18T16:41:22.357Z,2.40
2022-09-18T16:43:50.210Z,3.92
2022-09-18T16:46:18.074Z,3.80
2022-09-18T16:48:47.576Z,5.43
2022-09-18T16:51:14.966Z,5.05
2022-09-18T16:53:42.757Z,2.75
2022-09-18T16:56:13.546Z,2.15
2022-09-18T16:58:41.259Z,1.48
2022-09-18T17:01:08.708Z,0.52
2022-09-18T17:03:36.202Z,1.13
2022-09-18T17:06:05.919Z,1.75
2022-09-18T17:08:33.352Z,1.40
2022-09-18T17:11:00.756Z,1.27
2022-09-18T17:13:28.821Z,1.45
2022-09-18T17:15:59.086Z,1.83
2022-09-18T17:18:29.261Z,3.65
2022-09-18T17:20:56.999Z,4.40
2022-09-18T17:23:27.661Z,1.75
2022-09-18T17:26:03.799Z,4.00
2022-09-18T17:28:31.848Z,2.88
2022-09-18T17:30:59.967Z,3.65
2022-09-18T17:33:27.383Z,3.17
2022-09-18T17:35:54.653Z,2.95
2022-09-18T17:38:22.399Z,2.65
2022-09-18T17:41:02.558Z,1.73
2022-09-18T17:43:30.852Z,2.40
2022-09-18T17:45:59.852Z,2.70
2022-09-18T17:48:28.992Z,2.85
2022-09-18T17:50:57.551Z,2.85
2022-09-18T17:53:25.541Z,2.03
2022-09-18T17:55:54.193Z,4.05
2022-09-18T17:58:23.510Z,2.15
2022-09-18T18:00:50.835Z,3.72
2022-09-18T18:03:18.160Z,3.63
2022-09-18T18:05:51.373Z,2.40
2022-09-18T18:08:18.739Z,1.80
2022-09-18T18:10:46.430Z,2.35
2022-09-18T18:13:14.054Z,4.05
2022-09-18T18:15:43.253Z,3.95
2022-09-18T18:18:11.799Z,3.35
2022-09-18T18:20:39.613Z,4.25
2022-09-18T18:23:06.901Z,2.80
2022-09-18T18:25:34.398Z,4.43
2022-09-18T18:28:02.520Z,3.33
2022-09-18T18:30:30.237Z,1.75
2022-09-18T18:32:58.935Z,4.00
2022-09-18T18:35:26.628Z,3.83
2022-09-18T18:37:54.107Z,2.53
2022-09-18T18:40:21.863Z,3.20
2022-09-18T18:42:50.423Z,3.22
2022-09-18T18:45:17.928Z,2.72
2022-09-18T18:47:45.333Z,2.30
2022-09-18T18:50:15.091Z,5.20
2022-09-18T18:52:42.613Z,8.43
2022-09-18T18:55:10.601Z,4.68
2022-09-18T18:57:38.829Z,2.97
2022-09-18T19:00:07.861Z,2.97
2022-09-18T19:02:35.274Z,2.15
2022-09-18T19:05:03.032Z,1.92
2022-09-18T19:07:32.596Z,3.90
2022-09-18T19:09:59.901Z,1.92
2022-09-18T19:12:27.405Z,2.38
2022-09-18T19:14:54.784Z,1.67
2022-09-18T19:17:24.822Z,1.55
2022-09-18T19:19:52.495Z,2.05
2022-09-18T19:22:20.055Z,1.60
2022-09-18T19:24:49.076Z,4.28
2022-09-18T19:27:17.057Z,1.55
2022-09-18T19:29:49.201Z,2.70
2022-09-18T19:32:17.067Z,2.25
2022-09-18T19:34:45.242Z,2.13
2022-09-18T19:37:14.889Z,1.20
2022-09-18T19:39:45.248Z,2.53
2022-09-18T19:42:14.975Z,2.33
2022-09-18T19:44:47.396Z,3.72
2022-09-18T19:47:19.362Z,2.70
2022-09-18T19:49:47.327Z,1.55
2022-09-18T19:52:17.870Z,1.88
2022-09-18T19:54:46.844Z,1.35
2022-09-18T19:57:16.302Z,2.30
2022-09-18T19:59:43.700Z,1.83
2022-09-18T20:02:13.560Z,2.25
2022-09-18T20:04:41.370Z,2.95
2022-09-18T20:07:09.435Z,1.42
2022-09-18T20:09:37.510Z,1.73
2022-09-18T20:12:05.151Z,2.45
2022-09-18T20:14:34.028Z,2.15
2022-09-18T20:17:01.581Z,1.77
2022-09-18T20:19:31.787Z,3.20
2022-09-18T20:21:59.785Z,2.22
2022-09-18T20:24:28.875Z,2.67
2022-09-18T20:26:57.294Z,4.00
2022-09-18T20:29:24.794Z,1.25
2022-09-18T20:31:54.198Z,2.42
2022-09-18T20:34:21.727Z,1.27
2022-09-18T20:36:49.567Z,1.95
2022-09-18T20:39:17.569Z,3.80
2022-09-18T20:41:45.260Z,0.47
2022-09-18T20:44:12.678Z,2.35
2022-09-18T20:46:40.666Z,2.05
2022-09-18T20:49:11.127Z,4.90
2022-09-18T20:51:38.479Z,2.67
2022-09-18T20:54:06.664Z,1.88
2022-09-18T20:56:36.297Z,3.60
2022-09-18T20:59:04.184Z,2.40
2022-09-18T21:01:32.745Z,2.65
2022-09-18T21:04:01.601Z,2.38
2022-09-18T21:06:32.999Z,2.88
2022-09-18T21:09:05.487Z,2.97
2022-09-18T21:11:39.452Z,2.28
2022-09-18T21:14:10.295Z,1.75
2022-09-18T21:16:39.059Z,2.38
2022-09-18T21:19:06.652Z,1.92
2022-09-18T21:21:36.289Z,4.78
2022-09-18T21:24:04.282Z,2.92
2022-09-18T21:26:33.277Z,1.80
2022-09-18T21:29:02.523Z,1.48
2022-09-18T21:31:31.262Z,4.35
2022-09-18T21:33:58.800Z,2.25
2022-09-18T21:36:27.295Z,1.92
2022-09-18T21:38:56.094Z,3.35
2022-09-18T21:41:23.460Z,2.78
2022-09-18T21:43:52.964Z,3.35
2022-09-18T21:46:21.758Z,3.10
2022-09-18T21:48:50.103Z,2.83
2022-09-18T21:51:17.872Z,1.75
2022-09-18T21:53:45.584Z,4.78
2022-09-18T21:56:16.314Z,2.22
2022-09-18T21:58:44.686Z,1.25
2022-09-18T22:01:15.828Z,3.55
2022-09-18T22:03:43.349Z,1.98
2022-09-18T22:06:11.011Z,1.45
2022-09-18T22:08:38.300Z,2.22
2022-09-18T22:11:05.849Z,2.00
2022-09-18T22:13:37.980Z,1.42
2022-09-18T22:16:05.483Z,1.70
2022-09-18T22:18:32.900Z,2.75
2022-09-18T22:21:00.535Z,3.00
2022-09-18T22:23:27.941Z,1.15
2022-09-18T22:25:58.020Z,0.77
2022-09-18T22:28:27.818Z,1.15
2022-09-18T22:30:56.699Z,1.85
2022-09-18T22:33:23.967Z,2.58
2022-09-18T22:35:52.054Z,3.40
2022-09-18T22:38:19.266Z,3.00
2022-09-18T22:40:46.598Z,3.80
2022-09-18T22:43:14.186Z,1.55
2022-09-18T22:45:41.449Z,1.33
2022-09-18T22:48:10.185Z,1.90
2022-09-18T22:50:37.773Z,1.73
2022-09-18T22:53:04.988Z,2.05
2022-09-18T22:55:32.361Z,3.25
2022-09-18T22:58:00.243Z,1.40
2022-09-18T23:00:27.483Z,1.95
2022-09-18T23:02:54.668Z,1.75
2022-09-18T23:05:23.577Z,2.83
2022-09-18T23:07:51.098Z,5.03
2022-09-18T23:10:18.416Z,2.25
2022-09-18T23:12:46.095Z,2.97
2022-09-18T23:15:13.399Z,2.22
2022-09-18T23:17:40.574Z,4.80
2022-09-18T23:20:08.856Z,1.25
2022-09-18T23:22:37.416Z,1.70
2022-09-18T23:25:05.392Z,4.07
2022-09-18T23:27:33.327Z,2.35
2022-09-18T23:30:00.566Z,2.45
2022-09-18T23:32:28.244Z,1.33
2022-09-18T23:34:55.633Z,2.63
2022-09-18T23:37:23.141Z,2.95
2022-09-18T23:39:51.925Z,3.90
2022-09-18T23:42:19.456Z,1.90
2022-09-18T23:44:46.757Z,1.70
2022-09-18T23:47:13.968Z,3.20
2022-09-18T23:49:41.405Z,1.83
2022-09-18T23:52:08.655Z,2.20
2022-09-18T23:54:35.841Z,2.05
2022-09-18T23:57:04.787Z,3.08
2022-09-18T23:59:32.183Z,4.28
